sensor_id;sensor_type;location;lat;lon;timestamp;temperature;humidity
28524;DHT22;15734;50.904;6.922;2022-09-09T00:00:47;16.90;99.90
28524;DHT22;15734;50.904;6.922;2022-09-09T00:03:18;16.80;99.90
28524;DHT22;15734;50.904;6.922;2022-09-09T00:05:59;16.70;99.90
28524;DHT22;15734;50.904;6.922;2022-09-09T00:09:16;16.60;99.90
28524;DHT22;15734;50.904;6.922;2022-09-09T00:11:39;16.50;99.90
28524;DHT22;15734;50.904;6.922;2022-09-09T00:14:13;16.50;99.90
28524;DHT22;15734;50.904;6.922;2022-09-09T00:16:42;16.50;99.90
28524;DHT22;15734;50.904;6.922;2022-09-09T00:19:24;16.40;99.90
28524;DHT22;15734;50.904;6.922;2022-09-09T00:24:44;16.30;99.90
28524;DHT22;15734;50.904;6.922;2022-09-09T00:30:22;16.20;99.90
28524;DHT22;15734;50.904;6.922;2022-09-09T00:33:11;16.20;99.90
28524;DHT22;15734;50.904;6.922;2022-09-09T00:35:47;16.20;99.90
28524;DHT22;15734;50.904;6.922;2022-09-09T00:38:25;16.20;99.90
28524;DHT22;15734;50.904;6.922;2022-09-09T00:40:55;16.20;99.90
28524;DHT22;15734;50.904;6.922;2022-09-09T00:48:45;16.60;99.90
28524;DHT22;15734;50.904;6.922;2022-09-09T00:54:21;16.70;99.90
28524;DHT22;15734;50.904;6.922;2022-09-09T00:57:13;16.80;99.90
28524;DHT22;15734;50.904;6.922;2022-09-09T00:59:52;16.70;99.90
28524;DHT22;15734;50.904;6.922;2022-09-09T01:05:10;16.70;99.90
28524;DHT22;15734;50.904;6.922;2022-09-09T01:07:40;16.80;99.90
28524;DHT22;15734;50.904;6.922;2022-09-09T01:10:25;16.90;99.90
28524;DHT22;15734;50.904;6.922;2022-09-09T01:12:52;16.90;99.90
28524;DHT22;15734;50.904;6.922;2022-09-09T01:15:25;16.90;99.90
28524;DHT22;15734;50.904;6.922;2022-09-09T01:18:07;16.80;99.90
28524;DHT22;15734;50.904;6.922;2022-09-09T01:20:49;16.80;99.90
28524;DHT22;15734;50.904;6.922;2022-09-09T01:28:37;16.70;99.90
28524;DHT22;15734;50.904;6.922;2022-09-09T01:31:05;16.60;99.90
28524;DHT22;15734;50.904;6.922;2022-09-09T01:33:32;16.40;99.90
28524;DHT22;15734;50.904;6.922;2022-09-09T01:36:05;16.40;99.90
28524;DHT22;15734;50.904;6.922;2022-09-09T01:38:33;16.30;99.90
28524;DHT22;15734;50.904;6.922;2022-09-09T01:41:00;16.20;99.90
28524;DHT22;15734;50.904;6.922;2022-09-09T01:43:27;16.20;99.90
28524;DHT22;15734;50.904;6.922;2022-09-09T01:45:55;16.10;99.90
28524;DHT22;15734;50.904;6.922;2022-09-09T01:48:22;16.00;99.90
28524;DHT22;15734;50.904;6.922;2022-09-09T01:50:48;16.00;99.90
28524;DHT22;15734;50.904;6.922;2022-09-09T01:53:15;16.00;99.90
28524;DHT22;15734;50.904;6.922;2022-09-09T02:01:02;16.10;99.90
28524;DHT22;15734;50.904;6.922;2022-09-09T02:03:32;16.10;99.90
28524;DHT22;15734;50.904;6.922;2022-09-09T02:06:15;16.10;99.90
28524;DHT22;15734;50.904;6.922;2022-09-09T02:08:48;16.10;99.90
28524;DHT22;15734;50.904;6.922;2022-09-09T02:11:26;16.20;99.90
28524;DHT22;15734;50.904;6.922;2022-09-09T02:13:56;16.20;99.90
28524;DHT22;15734;50.904;6.922;2022-09-09T02:21:28;16.10;99.90
28524;DHT22;15734;50.904;6.922;2022-09-09T02:23:57;16.20;99.90
28524;DHT22;15734;50.904;6.922;2022-09-09T02:26:23;16.20;99.90
28524;DHT22;15734;50.904;6.922;2022-09-09T02:28:53;16.20;99.90
28524;DHT22;15734;50.904;6.922;2022-09-09T02:31:22;16.20;99.90
28524;DHT22;15734;50.904;6.922;2022-09-09T02:33:57;16.20;99.90
28524;DHT22;15734;50.904;6.922;2022-09-09T02:36:26;16.20;99.90
28524;DHT22;15734;50.904;6.922;2022-09-09T02:38:54;16.20;99.90
28524;DHT22;15734;50.904;6.922;2022-09-09T02:41:25;16.20;99.90
28524;DHT22;15734;50.904;6.922;2022-09-09T02:43:53;16.20;99.90
28524;DHT22;15734;50.904;6.922;2022-09-09T02:49:16;16.20;99.90
28524;DHT22;15734;50.904;6.922;2022-09-09T02:52:04;16.20;99.90
28524;DHT22;15734;50.904;6.922;2022-09-09T02:54:36;16.30;99.90
28524;DHT22;15734;50.904;6.922;2022-09-09T02:57:19;16.30;99.90
28524;DHT22;15734;50.904;6.922;2022-09-09T02:59:46;16.30;99.90
28524;DHT22;15734;50.904;6.922;2022-09-09T03:02:12;16.20;99.90
28524;DHT22;15734;50.904;6.922;2022-09-09T03:04:39;16.20;99.90
28524;DHT22;15734;50.904;6.922;2022-09-09T03:07:05;16.30;99.90
28524;DHT22;15734;50.904;6.922;2022-09-09T03:09:31;16.30;99.90
28524;DHT22;15734;50.904;6.922;2022-09-09T03:11:58;16.30;99.90
28524;DHT22;15734;50.904;6.922;2022-09-09T03:14:23;16.30;99.90
28524;DHT22;15734;50.904;6.922;2022-09-09T03:16:52;16.30;99.90
28524;DHT22;15734;50.904;6.922;2022-09-09T03:19:18;16.30;99.90
28524;DHT22;15734;50.904;6.922;2022-09-09T03:21:45;16.30;99.90
28524;DHT22;15734;50.904;6.922;2022-09-09T03:24:11;16.30;99.90
28524;DHT22;15734;50.904;6.922;2022-09-09T03:26:37;16.30;99.90
28524;DHT22;15734;50.904;6.922;2022-09-09T03:29:03;16.30;99.90
28524;DHT22;15734;50.904;6.922;2022-09-09T03:31:30;16.20;99.90
28524;DHT22;15734;50.904;6.922;2022-09-09T03:33:59;16.20;99.90
28524;DHT22;15734;50.904;6.922;2022-09-09T03:36:26;16.20;99.90
28524;DHT22;15734;50.904;6.922;2022-09-09T03:38:52;16.20;99.90
28524;DHT22;15734;50.904;6.922;2022-09-09T03:41:20;16.30;99.90
28524;DHT22;15734;50.904;6.922;2022-09-09T03:43:51;16.30;99.90
28524;DHT22;15734;50.904;6.922;2022-09-09T03:46:18;16.30;99.90
28524;DHT22;15734;50.904;6.922;2022-09-09T03:48:44;16.30;99.90
28524;DHT22;15734;50.904;6.922;2022-09-09T03:51:09;16.30;99.90
28524;DHT22;15734;50.904;6.922;2022-09-09T03:53:36;16.30;99.90
28524;DHT22;15734;50.904;6.922;2022-09-09T03:56:04;16.40;99.90
28524;DHT22;15734;50.904;6.922;2022-09-09T03:58:33;16.30;99.90
28524;DHT22;15734;50.904;6.922;2022-09-09T04:01:01;16.30;99.90
28524;DHT22;15734;50.904;6.922;2022-09-09T04:03:28;16.40;99.90
28524;DHT22;15734;50.904;6.922;2022-09-09T04:05:55;16.40;99.90
28524;DHT22;15734;50.904;6.922;2022-09-09T04:08:21;16.40;99.90
28524;DHT22;15734;50.904;6.922;2022-09-09T04:10:51;16.40;99.90
28524;DHT22;15734;50.904;6.922;2022-09-09T04:13:18;16.40;99.90
28524;DHT22;15734;50.904;6.922;2022-09-09T04:15:51;16.40;99.90
28524;DHT22;15734;50.904;6.922;2022-09-09T04:18:16;16.40;99.90
28524;DHT22;15734;50.904;6.922;2022-09-09T04:20:42;16.40;99.90
28524;DHT22;15734;50.904;6.922;2022-09-09T04:23:08;16.40;99.90
28524;DHT22;15734;50.904;6.922;2022-09-09T04:25:34;16.40;99.90
28524;DHT22;15734;50.904;6.922;2022-09-09T04:28:00;16.30;99.90
28524;DHT22;15734;50.904;6.922;2022-09-09T04:30:25;16.40;99.90
28524;DHT22;15734;50.904;6.922;2022-09-09T04:32:52;16.30;99.90
28524;DHT22;15734;50.904;6.922;2022-09-09T04:35:18;16.30;99.90
28524;DHT22;15734;50.904;6.922;2022-09-09T04:37:45;16.30;99.90
28524;DHT22;15734;50.904;6.922;2022-09-09T04:40:11;16.30;99.90
28524;DHT22;15734;50.904;6.922;2022-09-09T04:42:37;16.40;99.90
28524;DHT22;15734;50.904;6.922;2022-09-09T04:45:03;16.40;99.90
28524;DHT22;15734;50.904;6.922;2022-09-09T04:47:28;16.40;99.90
28524;DHT22;15734;50.904;6.922;2022-09-09T04:49:54;16.50;99.90
28524;DHT22;15734;50.904;6.922;2022-09-09T04:52:20;16.50;99.90
28524;DHT22;15734;50.904;6.922;2022-09-09T04:54:46;16.50;99.90
28524;DHT22;15734;50.904;6.922;2022-09-09T04:57:12;16.50;99.90
28524;DHT22;15734;50.904;6.922;2022-09-09T04:59:37;16.60;99.90
28524;DHT22;15734;50.904;6.922;2022-09-09T05:02:05;16.60;99.90
28524;DHT22;15734;50.904;6.922;2022-09-09T05:04:30;16.60;99.90
28524;DHT22;15734;50.904;6.922;2022-09-09T05:06:56;16.70;99.90
28524;DHT22;15734;50.904;6.922;2022-09-09T05:09:21;16.70;99.90
28524;DHT22;15734;50.904;6.922;2022-09-09T05:11:47;16.60;99.90
28524;DHT22;15734;50.904;6.922;2022-09-09T05:14:13;16.70;99.90
28524;DHT22;15734;50.904;6.922;2022-09-09T05:16:40;16.70;99.90
28524;DHT22;15734;50.904;6.922;2022-09-09T05:19:05;16.70;99.90
28524;DHT22;15734;50.904;6.922;2022-09-09T05:21:33;16.70;99.90
28524;DHT22;15734;50.904;6.922;2022-09-09T05:23:59;16.60;99.90
28524;DHT22;15734;50.904;6.922;2022-09-09T05:26:26;16.70;99.90
28524;DHT22;15734;50.904;6.922;2022-09-09T05:28:51;16.60;99.90
28524;DHT22;15734;50.904;6.922;2022-09-09T05:31:18;16.60;99.90
28524;DHT22;15734;50.904;6.922;2022-09-09T05:33:45;16.60;99.90
28524;DHT22;15734;50.904;6.922;2022-09-09T05:36:16;16.60;99.90
28524;DHT22;15734;50.904;6.922;2022-09-09T05:38:42;16.60;99.90
28524;DHT22;15734;50.904;6.922;2022-09-09T05:41:09;16.60;99.90
28524;DHT22;15734;50.904;6.922;2022-09-09T05:43:36;16.60;99.90
28524;DHT22;15734;50.904;6.922;2022-09-09T05:46:13;16.60;99.90
28524;DHT22;15734;50.904;6.922;2022-09-09T05:48:41;16.70;99.90
28524;DHT22;15734;50.904;6.922;2022-09-09T05:51:10;16.70;99.90
28524;DHT22;15734;50.904;6.922;2022-09-09T05:53:41;16.80;99.90
28524;DHT22;15734;50.904;6.922;2022-09-09T05:56:15;16.80;99.90
28524;DHT22;15734;50.904;6.922;2022-09-09T05:58:41;16.80;99.90
28524;DHT22;15734;50.904;6.922;2022-09-09T06:01:21;16.90;99.90
28524;DHT22;15734;50.904;6.922;2022-09-09T06:03:49;16.90;99.90
28524;DHT22;15734;50.904;6.922;2022-09-09T06:06:20;17.00;99.90
28524;DHT22;15734;50.904;6.922;2022-09-09T06:08:47;17.00;99.90
28524;DHT22;15734;50.904;6.922;2022-09-09T06:11:18;17.10;99.90
28524;DHT22;15734;50.904;6.922;2022-09-09T06:13:44;17.10;99.90
28524;DHT22;15734;50.904;6.922;2022-09-09T06:16:16;17.10;99.90
28524;DHT22;15734;50.904;6.922;2022-09-09T06:18:42;17.10;99.90
28524;DHT22;15734;50.904;6.922;2022-09-09T06:21:15;17.20;99.90
28524;DHT22;15734;50.904;6.922;2022-09-09T06:23:41;17.10;99.90
28524;DHT22;15734;50.904;6.922;2022-09-09T06:26:17;17.10;99.90
28524;DHT22;15734;50.904;6.922;2022-09-09T06:28:46;17.20;99.90
28524;DHT22;15734;50.904;6.922;2022-09-09T06:31:14;17.10;99.90
28524;DHT22;15734;50.904;6.922;2022-09-09T06:33:42;17.20;99.90
28524;DHT22;15734;50.904;6.922;2022-09-09T06:36:15;17.10;99.90
28524;DHT22;15734;50.904;6.922;2022-09-09T06:38:42;17.10;99.90
28524;DHT22;15734;50.904;6.922;2022-09-09T06:41:09;17.20;99.90
28524;DHT22;15734;50.904;6.922;2022-09-09T06:43:35;17.20;99.90
28524;DHT22;15734;50.904;6.922;2022-09-09T06:46:04;17.20;99.90
28524;DHT22;15734;50.904;6.922;2022-09-09T06:48:30;17.20;99.90
28524;DHT22;15734;50.904;6.922;2022-09-09T06:51:09;17.20;99.90
28524;DHT22;15734;50.904;6.922;2022-09-09T06:53:37;17.30;99.90
28524;DHT22;15734;50.904;6.922;2022-09-09T06:58:47;17.30;99.90
28524;DHT22;15734;50.904;6.922;2022-09-09T07:01:16;17.30;99.90
28524;DHT22;15734;50.904;6.922;2022-09-09T07:03:45;17.40;99.90
28524;DHT22;15734;50.904;6.922;2022-09-09T07:06:19;17.50;99.90
28524;DHT22;15734;50.904;6.922;2022-09-09T07:08:52;17.50;99.90
28524;DHT22;15734;50.904;6.922;2022-09-09T07:11:22;17.60;99.90
28524;DHT22;15734;50.904;6.922;2022-09-09T07:13:48;17.70;99.90
28524;DHT22;15734;50.904;6.922;2022-09-09T07:16:16;17.70;99.90
28524;DHT22;15734;50.904;6.922;2022-09-09T07:18:42;17.80;99.90
28524;DHT22;15734;50.904;6.922;2022-09-09T07:21:10;17.80;99.90
28524;DHT22;15734;50.904;6.922;2022-09-09T07:23:38;17.90;99.90
28524;DHT22;15734;50.904;6.922;2022-09-09T07:26:14;18.00;99.90
28524;DHT22;15734;50.904;6.922;2022-09-09T07:28:41;18.00;99.90
28524;DHT22;15734;50.904;6.922;2022-09-09T07:31:12;18.10;99.90
28524;DHT22;15734;50.904;6.922;2022-09-09T07:33:39;18.20;99.90
28524;DHT22;15734;50.904;6.922;2022-09-09T07:36:12;18.30;99.90
28524;DHT22;15734;50.904;6.922;2022-09-09T07:38:43;18.40;99.90
28524;DHT22;15734;50.904;6.922;2022-09-09T07:41:12;18.70;99.90
28524;DHT22;15734;50.904;6.922;2022-09-09T07:43:43;18.80;99.90
28524;DHT22;15734;50.904;6.922;2022-09-09T07:46:10;18.90;99.90
28524;DHT22;15734;50.904;6.922;2022-09-09T07:48:37;18.90;99.90
28524;DHT22;15734;50.904;6.922;2022-09-09T07:51:14;18.90;99.90
28524;DHT22;15734;50.904;6.922;2022-09-09T07:53:46;18.90;99.90
28524;DHT22;15734;50.904;6.922;2022-09-09T07:56:16;18.90;99.90
28524;DHT22;15734;50.904;6.922;2022-09-09T07:58:45;18.90;99.90
28524;DHT22;15734;50.904;6.922;2022-09-09T08:01:16;19.00;99.90
28524;DHT22;15734;50.904;6.922;2022-09-09T08:03:47;19.00;99.90
28524;DHT22;15734;50.904;6.922;2022-09-09T08:06:13;19.10;99.90
28524;DHT22;15734;50.904;6.922;2022-09-09T08:08:39;19.10;99.90
28524;DHT22;15734;50.904;6.922;2022-09-09T08:11:16;19.00;99.90
28524;DHT22;15734;50.904;6.922;2022-09-09T08:13:43;19.00;99.90
28524;DHT22;15734;50.904;6.922;2022-09-09T08:16:14;19.00;99.90
28524;DHT22;15734;50.904;6.922;2022-09-09T08:18:41;19.00;99.90
28524;DHT22;15734;50.904;6.922;2022-09-09T08:21:12;19.10;99.90
28524;DHT22;15734;50.904;6.922;2022-09-09T08:23:41;19.10;99.90
28524;DHT22;15734;50.904;6.922;2022-09-09T08:26:15;19.10;99.90
28524;DHT22;15734;50.904;6.922;2022-09-09T08:28:41;19.20;99.90
28524;DHT22;15734;50.904;6.922;2022-09-09T08:31:14;19.30;99.90
28524;DHT22;15734;50.904;6.922;2022-09-09T08:33:40;19.30;99.90
28524;DHT22;15734;50.904;6.922;2022-09-09T08:36:08;19.40;99.90
28524;DHT22;15734;50.904;6.922;2022-09-09T08:38:35;19.50;99.90
28524;DHT22;15734;50.904;6.922;2022-09-09T08:44:28;19.40;99.90
28524;DHT22;15734;50.904;6.922;2022-09-09T08:52:18;19.40;99.90
28524;DHT22;15734;50.904;6.922;2022-09-09T08:54:45;19.40;99.90
28524;DHT22;15734;50.904;6.922;2022-09-09T08:57:17;19.60;99.90
28524;DHT22;15734;50.904;6.922;2022-09-09T08:59:45;19.60;99.90
28524;DHT22;15734;50.904;6.922;2022-09-09T09:07:42;19.80;99.90
28524;DHT22;15734;50.904;6.922;2022-09-09T09:12:58;19.90;99.90
28524;DHT22;15734;50.904;6.922;2022-09-09T09:15:31;20.00;99.90
28524;DHT22;15734;50.904;6.922;2022-09-09T09:18:02;20.20;99.90
28524;DHT22;15734;50.904;6.922;2022-09-09T09:20:50;20.30;99.90
28524;DHT22;15734;50.904;6.922;2022-09-09T09:23:28;20.30;99.90
28524;DHT22;15734;50.904;6.922;2022-09-09T09:25:59;20.20;99.90
28524;DHT22;15734;50.904;6.922;2022-09-09T09:28:28;20.00;99.90
28524;DHT22;15734;50.904;6.922;2022-09-09T09:31:06;19.80;99.90
28524;DHT22;15734;50.904;6.922;2022-09-09T09:33:51;19.90;99.90
28524;DHT22;15734;50.904;6.922;2022-09-09T09:36:19;19.90;99.90
28524;DHT22;15734;50.904;6.922;2022-09-09T09:38:59;20.00;99.90
28524;DHT22;15734;50.904;6.922;2022-09-09T09:41:42;20.00;99.90
28524;DHT22;15734;50.904;6.922;2022-09-09T09:44:28;20.00;99.90
28524;DHT22;15734;50.904;6.922;2022-09-09T09:47:10;19.90;99.90
28524;DHT22;15734;50.904;6.922;2022-09-09T09:49:37;20.00;99.90
28524;DHT22;15734;50.904;6.922;2022-09-09T09:52:04;20.00;99.90
28524;DHT22;15734;50.904;6.922;2022-09-09T09:54:33;20.10;99.90
28524;DHT22;15734;50.904;6.922;2022-09-09T09:57:17;20.20;99.90
28524;DHT22;15734;50.904;6.922;2022-09-09T09:59:43;20.20;99.90
28524;DHT22;15734;50.904;6.922;2022-09-09T10:02:17;20.40;99.90
28524;DHT22;15734;50.904;6.922;2022-09-09T10:04:43;20.40;99.90
28524;DHT22;15734;50.904;6.922;2022-09-09T10:07:20;20.40;99.90
28524;DHT22;15734;50.904;6.922;2022-09-09T10:09:57;20.40;99.90
28524;DHT22;15734;50.904;6.922;2022-09-09T10:15:29;20.60;99.90
28524;DHT22;15734;50.904;6.922;2022-09-09T10:18:19;20.60;99.90
28524;DHT22;15734;50.904;6.922;2022-09-09T10:21:00;20.40;99.90
28524;DHT22;15734;50.904;6.922;2022-09-09T10:32:31;20.20;99.90
28524;DHT22;15734;50.904;6.922;2022-09-09T10:35:52;20.30;99.90
28524;DHT22;15734;50.904;6.922;2022-09-09T10:52:31;21.30;99.90
28524;DHT22;15734;50.904;6.922;2022-09-09T10:55:17;21.40;99.90
28524;DHT22;15734;50.904;6.922;2022-09-09T10:57:51;21.20;99.90
28524;DHT22;15734;50.904;6.922;2022-09-09T11:00:23;21.30;99.90
28524;DHT22;15734;50.904;6.922;2022-09-09T11:02:58;21.10;99.90
28524;DHT22;15734;50.904;6.922;2022-09-09T11:08:14;21.20;99.90
28524;DHT22;15734;50.904;6.922;2022-09-09T11:19:01;21.00;99.90
28524;DHT22;15734;50.904;6.922;2022-09-09T11:21:36;20.90;99.90
28524;DHT22;15734;50.904;6.922;2022-09-09T11:24:13;20.80;99.90
28524;DHT22;15734;50.904;6.922;2022-09-09T11:26:46;20.80;99.90
28524;DHT22;15734;50.904;6.922;2022-09-09T11:29:33;20.80;99.90
28524;DHT22;15734;50.904;6.922;2022-09-09T11:32:15;20.80;99.90
28524;DHT22;15734;50.904;6.922;2022-09-09T11:40:31;21.00;99.90
28524;DHT22;15734;50.904;6.922;2022-09-09T11:43:03;21.00;99.90
28524;DHT22;15734;50.904;6.922;2022-09-09T11:45:31;21.00;99.90
28524;DHT22;15734;50.904;6.922;2022-09-09T11:48:00;21.20;99.90
28524;DHT22;15734;50.904;6.922;2022-09-09T11:53:16;21.20;99.90
28524;DHT22;15734;50.904;6.922;2022-09-09T11:55:45;21.30;99.90
28524;DHT22;15734;50.904;6.922;2022-09-09T12:00:43;21.30;99.90
28524;DHT22;15734;50.904;6.922;2022-09-09T12:06:08;21.20;99.90
28524;DHT22;15734;50.904;6.922;2022-09-09T12:08:35;21.00;99.90
28524;DHT22;15734;50.904;6.922;2022-09-09T12:11:02;20.90;99.90
28524;DHT22;15734;50.904;6.922;2022-09-09T12:13:31;20.90;99.90
28524;DHT22;15734;50.904;6.922;2022-09-09T12:15:58;20.80;99.90
28524;DHT22;15734;50.904;6.922;2022-09-09T12:18:34;20.90;99.90
28524;DHT22;15734;50.904;6.922;2022-09-09T12:21:40;21.00;99.90
28524;DHT22;15734;50.904;6.922;2022-09-09T12:24:13;21.10;99.90
28524;DHT22;15734;50.904;6.922;2022-09-09T12:26:50;21.30;99.90
28524;DHT22;15734;50.904;6.922;2022-09-09T12:29:28;21.30;99.90
28524;DHT22;15734;50.904;6.922;2022-09-09T12:32:04;21.60;99.90
28524;DHT22;15734;50.904;6.922;2022-09-09T12:34:41;21.70;99.90
28524;DHT22;15734;50.904;6.922;2022-09-09T12:37:36;21.60;99.90
28524;DHT22;15734;50.904;6.922;2022-09-09T12:40:04;21.50;99.90
28524;DHT22;15734;50.904;6.922;2022-09-09T12:42:30;21.40;99.90
28524;DHT22;15734;50.904;6.922;2022-09-09T12:45:03;21.30;99.90
28524;DHT22;15734;50.904;6.922;2022-09-09T12:50:17;21.10;99.90
28524;DHT22;15734;50.904;6.922;2022-09-09T12:52:44;21.10;99.90
28524;DHT22;15734;50.904;6.922;2022-09-09T12:55:18;21.40;99.90
28524;DHT22;15734;50.904;6.922;2022-09-09T12:57:44;21.80;99.90
28524;DHT22;15734;50.904;6.922;2022-09-09T13:00:16;22.20;99.90
28524;DHT22;15734;50.904;6.922;2022-09-09T13:02:54;22.20;99.90
28524;DHT22;15734;50.904;6.922;2022-09-09T13:05:27;22.10;99.90
28524;DHT22;15734;50.904;6.922;2022-09-09T13:08:04;22.10;99.90
28524;DHT22;15734;50.904;6.922;2022-09-09T13:10:35;22.00;99.90
28524;DHT22;15734;50.904;6.922;2022-09-09T13:13:04;22.00;99.90
28524;DHT22;15734;50.904;6.922;2022-09-09T13:15:30;22.20;99.90
28524;DHT22;15734;50.904;6.922;2022-09-09T13:17:58;22.30;99.90
28524;DHT22;15734;50.904;6.922;2022-09-09T13:20:26;22.50;99.90
28524;DHT22;15734;50.904;6.922;2022-09-09T13:22:53;22.70;99.90
28524;DHT22;15734;50.904;6.922;2022-09-09T13:25:26;22.70;99.90
28524;DHT22;15734;50.904;6.922;2022-09-09T13:28:04;22.30;99.90
28524;DHT22;15734;50.904;6.922;2022-09-09T13:30:32;22.30;99.90
28524;DHT22;15734;50.904;6.922;2022-09-09T13:36:09;23.20;99.90
28524;DHT22;15734;50.904;6.922;2022-09-09T13:38:53;22.60;99.90
28524;DHT22;15734;50.904;6.922;2022-09-09T13:41:24;22.40;99.90
28524;DHT22;15734;50.904;6.922;2022-09-09T13:43:50;22.80;99.90
28524;DHT22;15734;50.904;6.922;2022-09-09T13:46:39;23.30;99.90
28524;DHT22;15734;50.904;6.922;2022-09-09T13:51:42;23.90;99.90
28524;DHT22;15734;50.904;6.922;2022-09-09T13:54:13;24.20;99.90
28524;DHT22;15734;50.904;6.922;2022-09-09T13:56:39;24.10;99.90
28524;DHT22;15734;50.904;6.922;2022-09-09T13:59:11;24.20;99.90
28524;DHT22;15734;50.904;6.922;2022-09-09T14:01:36;24.10;99.90
28524;DHT22;15734;50.904;6.922;2022-09-09T14:04:03;23.70;99.90
28524;DHT22;15734;50.904;6.922;2022-09-09T14:06:30;23.40;99.90
28524;DHT22;15734;50.904;6.922;2022-09-09T14:08:57;22.90;99.90
28524;DHT22;15734;50.904;6.922;2022-09-09T14:11:23;22.30;99.90
28524;DHT22;15734;50.904;6.922;2022-09-09T14:13:48;22.20;99.90
28524;DHT22;15734;50.904;6.922;2022-09-09T14:16:17;22.10;99.90
28524;DHT22;15734;50.904;6.922;2022-09-09T14:18:44;22.00;99.90
28524;DHT22;15734;50.904;6.922;2022-09-09T14:21:10;21.90;99.90
28524;DHT22;15734;50.904;6.922;2022-09-09T14:23:36;21.70;99.90
28524;DHT22;15734;50.904;6.922;2022-09-09T14:26:06;21.70;99.90
28524;DHT22;15734;50.904;6.922;2022-09-09T14:28:32;21.70;99.90
28524;DHT22;15734;50.904;6.922;2022-09-09T14:31:03;21.70;99.90
28524;DHT22;15734;50.904;6.922;2022-09-09T14:33:29;21.60;99.90
28524;DHT22;15734;50.904;6.922;2022-09-09T14:36:02;20.80;99.90
28524;DHT22;15734;50.904;6.922;2022-09-09T14:38:29;20.70;99.90
28524;DHT22;15734;50.904;6.922;2022-09-09T14:40:55;20.10;99.90
28524;DHT22;15734;50.904;6.922;2022-09-09T14:43:21;19.40;99.90
28524;DHT22;15734;50.904;6.922;2022-09-09T14:45:47;18.90;99.90
28524;DHT22;15734;50.904;6.922;2022-09-09T14:48:17;18.10;99.90
28524;DHT22;15734;50.904;6.922;2022-09-09T14:50:42;17.80;99.90
28524;DHT22;15734;50.904;6.922;2022-09-09T14:53:09;17.90;99.90
28524;DHT22;15734;50.904;6.922;2022-09-09T14:55:36;18.00;99.90
28524;DHT22;15734;50.904;6.922;2022-09-09T14:58:02;18.00;99.90
28524;DHT22;15734;50.904;6.922;2022-09-09T15:00:28;18.00;99.90
28524;DHT22;15734;50.904;6.922;2022-09-09T15:02:54;18.20;99.90
28524;DHT22;15734;50.904;6.922;2022-09-09T15:05:20;18.30;99.90
28524;DHT22;15734;50.904;6.922;2022-09-09T15:07:46;18.40;99.90
28524;DHT22;15734;50.904;6.922;2022-09-09T15:10:12;18.40;99.90
28524;DHT22;15734;50.904;6.922;2022-09-09T15:12:38;18.40;99.90
28524;DHT22;15734;50.904;6.922;2022-09-09T15:15:04;18.50;99.90
28524;DHT22;15734;50.904;6.922;2022-09-09T15:17:30;18.50;99.90
28524;DHT22;15734;50.904;6.922;2022-09-09T15:19:56;18.50;99.90
28524;DHT22;15734;50.904;6.922;2022-09-09T15:22:22;18.50;99.90
28524;DHT22;15734;50.904;6.922;2022-09-09T15:24:48;18.40;99.90
28524;DHT22;15734;50.904;6.922;2022-09-09T15:27:13;18.30;99.90
28524;DHT22;15734;50.904;6.922;2022-09-09T15:29:40;18.40;99.90
28524;DHT22;15734;50.904;6.922;2022-09-09T15:32:06;18.40;99.90
28524;DHT22;15734;50.904;6.922;2022-09-09T15:34:32;18.30;99.90
28524;DHT22;15734;50.904;6.922;2022-09-09T15:36:58;18.30;99.90
28524;DHT22;15734;50.904;6.922;2022-09-09T15:39:25;18.30;99.90
28524;DHT22;15734;50.904;6.922;2022-09-09T15:41:50;18.30;99.90
28524;DHT22;15734;50.904;6.922;2022-09-09T15:44:17;18.20;99.90
28524;DHT22;15734;50.904;6.922;2022-09-09T15:46:50;18.10;99.90
28524;DHT22;15734;50.904;6.922;2022-09-09T15:49:25;18.00;99.90
28524;DHT22;15734;50.904;6.922;2022-09-09T15:51:55;17.90;99.90
28524;DHT22;15734;50.904;6.922;2022-09-09T15:54:24;17.70;99.90
28524;DHT22;15734;50.904;6.922;2022-09-09T15:56:57;17.50;99.90
28524;DHT22;15734;50.904;6.922;2022-09-09T15:59:24;17.40;99.90
28524;DHT22;15734;50.904;6.922;2022-09-09T16:01:50;17.10;99.90
28524;DHT22;15734;50.904;6.922;2022-09-09T16:04:17;17.10;99.90
28524;DHT22;15734;50.904;6.922;2022-09-09T16:06:54;17.10;99.90
28524;DHT22;15734;50.904;6.922;2022-09-09T16:09:20;17.10;99.90
28524;DHT22;15734;50.904;6.922;2022-09-09T16:11:47;17.10;99.90
28524;DHT22;15734;50.904;6.922;2022-09-09T16:14:14;17.00;99.90
28524;DHT22;15734;50.904;6.922;2022-09-09T16:16:41;17.00;99.90
28524;DHT22;15734;50.904;6.922;2022-09-09T16:19:10;17.00;99.90
28524;DHT22;15734;50.904;6.922;2022-09-09T16:21:39;17.00;99.90
28524;DHT22;15734;50.904;6.922;2022-09-09T16:24:06;17.10;99.90
28524;DHT22;15734;50.904;6.922;2022-09-09T16:26:34;17.10;99.90
28524;DHT22;15734;50.904;6.922;2022-09-09T16:29:01;17.00;99.90
28524;DHT22;15734;50.904;6.922;2022-09-09T16:31:28;17.10;99.90
28524;DHT22;15734;50.904;6.922;2022-09-09T16:33:54;17.10;99.90
28524;DHT22;15734;50.904;6.922;2022-09-09T16:36:25;17.20;99.90
28524;DHT22;15734;50.904;6.922;2022-09-09T16:38:53;17.20;99.90
28524;DHT22;15734;50.904;6.922;2022-09-09T16:41:20;17.20;99.90
28524;DHT22;15734;50.904;6.922;2022-09-09T16:43:52;17.30;99.90
28524;DHT22;15734;50.904;6.922;2022-09-09T16:46:19;17.30;99.90
28524;DHT22;15734;50.904;6.922;2022-09-09T16:48:46;17.30;99.90
28524;DHT22;15734;50.904;6.922;2022-09-09T16:51:15;17.30;99.90
28524;DHT22;15734;50.904;6.922;2022-09-09T16:53:41;17.40;99.90
28524;DHT22;15734;50.904;6.922;2022-09-09T16:56:14;17.40;99.90
28524;DHT22;15734;50.904;6.922;2022-09-09T16:58:40;17.50;99.90
28524;DHT22;15734;50.904;6.922;2022-09-09T17:01:09;17.40;99.90
28524;DHT22;15734;50.904;6.922;2022-09-09T17:03:36;17.50;99.90
28524;DHT22;15734;50.904;6.922;2022-09-09T17:06:02;17.50;99.90
28524;DHT22;15734;50.904;6.922;2022-09-09T17:08:31;17.40;99.90
28524;DHT22;15734;50.904;6.922;2022-09-09T17:10:57;17.40;99.90
28524;DHT22;15734;50.904;6.922;2022-09-09T17:13:24;17.40;99.90
28524;DHT22;15734;50.904;6.922;2022-09-09T17:15:50;17.40;99.90
28524;DHT22;15734;50.904;6.922;2022-09-09T17:18:15;17.30;99.90
28524;DHT22;15734;50.904;6.922;2022-09-09T17:20:42;17.30;99.90
28524;DHT22;15734;50.904;6.922;2022-09-09T17:23:09;17.30;99.90
28524;DHT22;15734;50.904;6.922;2022-09-09T17:25:35;17.20;99.90
28524;DHT22;15734;50.904;6.922;2022-09-09T17:28:01;17.20;99.90
28524;DHT22;15734;50.904;6.922;2022-09-09T17:30:35;17.20;99.90
28524;DHT22;15734;50.904;6.922;2022-09-09T17:33:02;17.10;99.90
28524;DHT22;15734;50.904;6.922;2022-09-09T17:35:29;17.10;99.90
28524;DHT22;15734;50.904;6.922;2022-09-09T17:37:55;17.00;99.90
28524;DHT22;15734;50.904;6.922;2022-09-09T17:40:21;16.90;99.90
28524;DHT22;15734;50.904;6.922;2022-09-09T17:42:47;16.90;99.90